NCAR-RAP Real-Time Weather Data

Output produced by METARs form (06 May 2021  16:20 UTC)
found at http://weather.rap.ucar.edu/surface/
 
KDIK 061556Z AUTO 22011G19KT 10SM CLR 14/M04 A3024 RMK AO2 SLP245 T01441039
KDIK 061456Z AUTO 24011KT 10SM CLR 13/M07 A3025 RMK AO2 SLP249 T01331067 50001
KDIK 061356Z AUTO 23008KT 10SM CLR 10/M02 A3027 RMK AO2 SLP253 T01001022
KDIK 061256Z AUTO 25005KT 9SM CLR 04/M02 A3026 RMK AO2 SLP257 T00441022
KDIK 061156Z AUTO 24004KT 10SM CLR 02/M06 A3025 RMK AO2 SLP254 T00171056 10050 21017 53001
KDIK 061056Z AUTO 20003KT 10SM CLR 01/M06 A3024 RMK AO2 SLP252 T00061056
KDIK 060956Z AUTO 20006KT 10SM CLR M02/M07 A3024 RMK AO2 SLP255 T10171067
KDIK 060856Z AUTO 15005KT 10SM CLR 02/M06 A3025 RMK AO2 SLP255 T00171056 50003
KDIK 060756Z AUTO 18005KT 10SM CLR 02/M05 A3025 RMK AO2 SLP257 T00171050
KDIK 060656Z AUTO 09004KT 10SM CLR 03/M04 A3025 RMK AO2 SLP255 T00281044 401560006
KDIK 060556Z AUTO 03007KT 10SM CLR 04/M05 A3024 RMK AO2 SLP254 T00441050 10139 20044 51016
KDIK 060456Z AUTO 02006KT 10SM OVC075 10/M03 A3023 RMK AO2 SLP247 T01001028
KDIK 060356Z AUTO 26003KT 10SM FEW080 OVC095 08/M02 A3021 RMK AO2 SLP243 T00781022
KDIK 060256Z AUTO 26005KT 10SM OVC085 09/M03 A3019 RMK AO2 SLP237 T00891028 53009